Skip Navigation LinksHome page > Weather > Current weather Skip Navigation Links

Current Weather

Metropolitan Oakland Intl, Oakland, Calif.

For information only: do not use for flight planning or navigation.
Latest weather
Observation time Thursday, November 21, 2019 1:53 PM PST
Local time Thursday, November 21, 2019 2:30 PM PST
Flight conditions Visual Meteorological Conditions
Winds
Wind direction South-Southwest (200°)
Wind speed 7 mph
Visibility 10 mi.
Sky condition
Ceiling unlimited
Cloud layer few clouds 1,500 ft.
Temperature 61°F
Dewpoint 43°F
Altimeter 29.89 in.Hg
Derived measurements
Relative humidity 52%
Density altitude 309 ft.
Sea-level pressure 29.89 in.Hg
Remarks
Automated weather observing station with precipitation discriminator.
METAR KOAK 212153Z 20006KT 10SM FEW015 16/06 A2989 RMK AO2 SLP122 T01610061

Settings

Location code

InnerDrive.Weather 4.0.6770.0 Release CLR 4.0.30319.42000
Copyright ©2018 Inner Drive Technology. All rights reserved. Portions Copyright ©1986-2018 David Braverman.

Find weather

Site navigation


Skip Navigation Links

Place info

Page info

PayPal - The safer, easier way to pay online!

Return home.

Copyright ©2019 Inner Drive Technology. Purveyors of fine, hand-crafted computer software. Page printed 2019-11-21T22:30:00 UTC.